createdAt,value
2019-05-02T00:01:31.020Z,30.17
2019-05-02T00:04:01.012Z,31.07
2019-05-02T00:06:31.442Z,26.10
2019-05-02T00:09:03.934Z,29.63
2019-05-02T00:11:35.548Z,29.53
2019-05-02T00:14:06.042Z,30.87
2019-05-02T00:16:36.062Z,30.37
2019-05-02T00:19:09.220Z,29.67
2019-05-02T00:21:40.755Z,30.80
2019-05-02T00:24:10.981Z,30.73
2019-05-02T00:26:40.854Z,34.90
2019-05-02T00:29:10.928Z,33.13
2019-05-02T00:31:41.950Z,33.40
2019-05-02T00:34:12.568Z,31.07
2019-05-02T00:36:42.524Z,38.00
2019-05-02T00:39:13.890Z,37.47
2019-05-02T00:41:44.057Z,36.00
2019-05-02T00:44:14.001Z,35.50
2019-05-02T00:46:43.878Z,36.80
2019-05-02T00:49:15.403Z,32.50
2019-05-02T00:51:45.431Z,33.13
2019-05-02T00:54:19.258Z,31.57
2019-05-02T00:56:48.390Z,32.80
2019-05-02T00:59:18.332Z,32.07
2019-05-02T01:01:52.533Z,31.77
2019-05-02T01:04:27.455Z,33.87
2019-05-02T01:06:55.665Z,30.67
2019-05-02T01:09:25.599Z,29.40
2019-05-02T01:11:55.522Z,28.27
2019-05-02T01:14:27.251Z,31.83
2019-05-02T01:16:56.939Z,29.43
2019-05-02T01:19:26.873Z,30.13
2019-05-02T01:21:56.791Z,30.63
2019-05-02T01:24:26.779Z,30.40
2019-05-02T01:27:04.539Z,30.77
2019-05-02T01:29:46.536Z,27.87
2019-05-02T01:32:31.326Z,29.63
2019-05-02T01:35:03.012Z,31.93
2019-05-02T01:37:34.495Z,27.73
2019-05-02T01:40:07.205Z,31.53
2019-05-02T01:42:40.069Z,27.20
2019-05-02T01:45:11.161Z,32.70
2019-05-02T01:47:40.862Z,29.23
2019-05-02T01:50:11.055Z,30.80
2019-05-02T01:52:41.062Z,28.10
2019-05-02T01:55:11.251Z,32.07
2019-05-02T01:57:44.839Z,29.33
2019-05-02T02:00:13.686Z,30.83
2019-05-02T02:02:43.632Z,30.90
2019-05-02T02:05:13.622Z,32.33
2019-05-02T02:07:43.560Z,30.40
2019-05-02T02:10:15.096Z,33.83
2019-05-02T02:13:02.709Z,30.87
2019-05-02T02:15:16.845Z,33.30
2019-05-02T02:17:46.967Z,32.23
2019-05-02T02:20:19.896Z,33.13
2019-05-02T02:23:00.661Z,30.50
2019-05-02T02:25:37.845Z,31.70
2019-05-02T02:28:07.782Z,31.27
2019-05-02T02:30:37.757Z,35.30
2019-05-02T02:33:09.409Z,35.93
2019-05-02T02:35:49.547Z,31.93
2019-05-02T02:38:10.880Z,30.30
2019-05-02T02:40:40.741Z,31.80
2019-05-02T02:43:32.163Z,30.43
2019-05-02T02:46:01.206Z,33.07
2019-05-02T02:48:33.727Z,30.07
2019-05-02T02:51:03.469Z,33.27
2019-05-02T02:53:33.407Z,29.53
2019-05-02T02:56:06.073Z,31.93
2019-05-02T02:58:45.832Z,34.53
2019-05-02T03:01:07.948Z,33.73
2019-05-02T03:03:37.899Z,29.90
2019-05-02T03:06:08.514Z,34.10
2019-05-02T03:08:46.389Z,32.10
2019-05-02T03:11:22.371Z,31.63
2019-05-02T03:13:53.482Z,33.30
2019-05-02T03:16:25.034Z,31.73
2019-05-02T03:18:54.899Z,33.73
2019-05-02T03:21:24.787Z,33.83
2019-05-02T03:24:03.442Z,31.00
2019-05-02T03:26:26.863Z,32.50
2019-05-02T03:28:58.744Z,34.03
2019-05-02T03:31:30.871Z,34.57
2019-05-02T03:34:00.988Z,32.90
2019-05-02T03:36:36.037Z,32.73
2019-05-02T03:39:13.323Z,34.47
2019-05-02T03:41:35.995Z,33.60
2019-05-02T03:44:11.144Z,35.03
2019-05-02T03:46:37.485Z,31.90
2019-05-02T03:49:09.756Z,31.00
2019-05-02T03:51:39.358Z,32.60
2019-05-02T03:54:10.418Z,38.83
2019-05-02T03:56:44.795Z,36.00
2019-05-02T03:59:12.148Z,31.53
2019-05-02T04:01:43.172Z,38.90
2019-05-02T04:04:20.563Z,32.07
2019-05-02T04:06:47.280Z,35.23
2019-05-02T04:09:32.041Z,31.40
2019-05-02T04:12:04.240Z,33.07
2019-05-02T04:14:38.938Z,31.17
2019-05-02T04:17:09.560Z,35.60
2019-05-02T04:19:40.450Z,32.53
2019-05-02T04:22:11.889Z,34.20
2019-05-02T04:24:47.932Z,36.17
2019-05-02T04:27:14.418Z,32.53
2019-05-02T04:29:44.337Z,31.00
2019-05-02T04:32:14.754Z,31.53
2019-05-02T04:34:48.868Z,32.23
2019-05-02T04:37:16.312Z,31.47
2019-05-02T04:39:49.104Z,30.67
2019-05-02T04:42:22.966Z,30.43
2019-05-02T04:45:11.760Z,33.47
2019-05-02T04:47:22.373Z,31.67
2019-05-02T04:49:57.968Z,32.70
2019-05-02T04:52:28.795Z,28.27
2019-05-02T04:55:08.011Z,29.83
2019-05-02T04:57:36.839Z,31.13
2019-05-02T05:00:10.495Z,27.43
2019-05-02T05:02:36.765Z,28.50
2019-05-02T05:05:08.330Z,31.87
2019-05-02T05:07:43.706Z,26.90
2019-05-02T05:10:11.516Z,28.77
2019-05-02T05:12:41.937Z,25.97
2019-05-02T05:15:13.356Z,27.93
2019-05-02T05:17:43.589Z,31.57
2019-05-02T05:20:15.608Z,26.60
2019-05-02T05:22:45.963Z,26.87
2019-05-02T05:25:33.733Z,27.20
2019-05-02T05:28:06.123Z,26.43
2019-05-02T05:30:37.590Z,26.90
2019-05-02T05:33:09.925Z,26.03
2019-05-02T05:35:38.628Z,25.50
2019-05-02T05:38:08.627Z,28.17
2019-05-02T05:40:38.559Z,27.57
2019-05-02T05:43:14.584Z,26.63
2019-05-02T05:45:50.689Z,27.93
2019-05-02T05:48:13.827Z,27.07
2019-05-02T05:50:43.204Z,29.60
2019-05-02T05:53:17.204Z,28.17
2019-05-02T05:55:44.648Z,27.33
2019-05-02T05:58:18.197Z,27.03
2019-05-02T06:00:53.832Z,26.70
2019-05-02T06:03:18.715Z,26.50
2019-05-02T06:05:48.588Z,27.63
2019-05-02T06:08:20.019Z,28.60
2019-05-02T06:10:50.894Z,27.30
2019-05-02T06:13:21.929Z,25.93
2019-05-02T06:16:02.246Z,23.37
2019-05-02T06:18:23.464Z,29.73
2019-05-02T06:20:53.325Z,29.03
2019-05-02T06:23:23.278Z,27.53
2019-05-02T06:25:53.150Z,26.87
2019-05-02T06:28:23.101Z,26.60
2019-05-02T06:30:53.055Z,29.17
2019-05-02T06:33:25.967Z,24.20
2019-05-02T06:36:00.851Z,28.57
2019-05-02T06:38:26.207Z,28.73
2019-05-02T06:40:56.341Z,23.93
2019-05-02T06:43:26.283Z,25.07
2019-05-02T06:45:56.148Z,24.30
2019-05-02T06:48:26.156Z,23.10
2019-05-02T06:50:56.996Z,27.23
2019-05-02T06:53:26.875Z,26.73
2019-05-02T06:55:56.803Z,26.33
2019-05-02T06:58:26.659Z,26.00
2019-05-02T07:00:58.980Z,26.70
2019-05-02T07:03:29.279Z,26.13
2019-05-02T07:06:02.844Z,24.10
2019-05-02T07:08:30.843Z,21.10
2019-05-02T07:11:03.000Z,24.70
2019-05-02T07:13:36.306Z,23.20
2019-05-02T07:16:10.399Z,24.70
2019-05-02T07:18:42.095Z,20.20
2019-05-02T07:21:12.215Z,23.50
2019-05-02T07:23:43.270Z,24.17
2019-05-02T07:26:15.404Z,20.73
2019-05-02T07:28:45.716Z,23.93
2019-05-02T07:31:16.700Z,19.30
2019-05-02T07:33:46.677Z,23.33
2019-05-02T07:36:16.633Z,22.57
2019-05-02T07:38:46.572Z,24.50
2019-05-02T07:41:16.502Z,23.10
2019-05-02T07:43:47.502Z,21.30
2019-05-02T07:46:21.019Z,19.40
2019-05-02T07:48:54.668Z,20.70
2019-05-02T07:51:21.259Z,20.13
2019-05-02T07:53:55.239Z,19.50
2019-05-02T07:56:23.836Z,17.50
2019-05-02T07:58:54.549Z,19.87
2019-05-02T08:01:24.562Z,22.00
2019-05-02T08:03:54.486Z,21.57
2019-05-02T08:06:34.926Z,18.87
2019-05-02T08:08:55.987Z,20.03
2019-05-02T08:11:26.212Z,16.93
2019-05-02T08:14:00.302Z,16.07
2019-05-02T08:16:28.729Z,13.37
2019-05-02T08:19:01.388Z,15.60
2019-05-02T08:21:32.481Z,14.53
2019-05-02T08:24:03.502Z,16.77
2019-05-02T08:26:43.997Z,18.13
2019-05-02T08:29:14.109Z,15.90
2019-05-02T08:31:44.042Z,18.27
2019-05-02T08:34:15.910Z,19.30
2019-05-02T08:36:45.580Z,21.13
2019-05-02T08:39:15.463Z,20.60
2019-05-02T08:41:45.400Z,19.30
2019-05-02T08:44:16.773Z,19.13
2019-05-02T08:46:51.377Z,19.00
2019-05-02T08:49:19.985Z,15.60
2019-05-02T08:51:51.113Z,18.83
2019-05-02T08:54:21.042Z,19.57
2019-05-02T08:56:53.230Z,19.70
2019-05-02T08:59:24.504Z,21.53
2019-05-02T09:01:54.057Z,19.20
2019-05-02T09:04:28.485Z,20.63
2019-05-02T09:06:58.743Z,21.17
2019-05-02T09:09:28.028Z,16.30
2019-05-02T09:12:11.390Z,22.23
2019-05-02T09:14:32.072Z,22.23
2019-05-02T09:17:08.888Z,20.37
2019-05-02T09:19:34.833Z,20.13
2019-05-02T09:22:07.715Z,17.40
2019-05-02T09:24:36.691Z,17.83
2019-05-02T09:27:06.792Z,19.40
2019-05-02T09:29:37.426Z,19.50
2019-05-02T09:32:08.321Z,20.53
2019-05-02T09:34:38.284Z,19.73
2019-05-02T09:37:08.163Z,15.53
2019-05-02T09:39:38.023Z,19.00
2019-05-02T09:42:12.171Z,17.13
2019-05-02T09:44:39.829Z,15.10
2019-05-02T09:47:12.842Z,15.83
2019-05-02T09:49:48.880Z,14.80
2019-05-02T09:52:14.456Z,15.27
2019-05-02T09:54:46.148Z,18.47
2019-05-02T09:57:15.954Z,16.47
2019-05-02T09:59:50.600Z,19.50
2019-05-02T10:02:18.444Z,15.73
2019-05-02T10:04:48.323Z,14.97
2019-05-02T10:07:19.419Z,14.63
2019-05-02T10:09:49.355Z,15.67
2019-05-02T10:12:19.213Z,14.47
2019-05-02T10:14:49.240Z,13.27
2019-05-02T10:17:19.238Z,13.70
2019-05-02T10:19:54.975Z,11.43
2019-05-02T10:22:22.819Z,11.90
2019-05-02T10:24:52.641Z,12.67
2019-05-02T10:27:22.560Z,13.00
2019-05-02T10:29:52.602Z,9.67
2019-05-02T10:32:22.702Z,8.67
2019-05-02T10:34:56.707Z,8.77
2019-05-02T10:37:24.223Z,9.13
2019-05-02T10:39:55.821Z,11.13
2019-05-02T10:42:25.884Z,8.60
2019-05-02T10:44:55.777Z,10.23
2019-05-02T10:47:25.734Z,11.00
2019-05-02T10:49:57.331Z,8.93
2019-05-02T10:52:34.012Z,12.17
2019-05-02T10:54:58.916Z,12.33
2019-05-02T10:57:28.855Z,12.77
2019-05-02T10:59:58.806Z,11.87
2019-05-02T11:02:41.985Z,13.30
2019-05-02T11:05:16.932Z,12.87
2019-05-02T11:07:45.247Z,12.83
2019-05-02T11:10:16.348Z,14.53
2019-05-02T11:13:03.043Z,14.53
2019-05-02T11:15:46.825Z,13.30
2019-05-02T11:18:18.662Z,16.40
2019-05-02T11:20:48.583Z,14.93
2019-05-02T11:23:18.477Z,17.13
2019-05-02T11:25:48.428Z,15.27
2019-05-02T11:28:18.488Z,14.60
2019-05-02T11:30:48.627Z,15.17
2019-05-02T11:33:18.614Z,17.90
2019-05-02T11:35:50.799Z,17.27
2019-05-02T11:38:35.856Z,13.83
2019-05-02T11:40:52.140Z,17.27
2019-05-02T11:43:22.424Z,17.00
2019-05-02T11:45:54.163Z,16.70
2019-05-02T11:48:23.920Z,21.07
2019-05-02T11:50:53.897Z,14.50
2019-05-02T11:53:28.507Z,18.37
2019-05-02T11:55:58.245Z,21.07
2019-05-02T11:58:26.975Z,19.00
2019-05-02T12:00:56.927Z,17.70
2019-05-02T12:03:37.100Z,19.57
2019-05-02T12:06:12.292Z,16.53
2019-05-02T12:08:39.373Z,21.17
2019-05-02T12:11:13.948Z,18.67
2019-05-02T12:13:42.754Z,20.27
2019-05-02T12:16:14.190Z,19.23
2019-05-02T12:18:44.125Z,23.30
2019-05-02T12:21:14.143Z,17.57
2019-05-02T12:23:45.076Z,19.13
2019-05-02T12:26:15.083Z,13.27
2019-05-02T12:28:45.024Z,16.37
2019-05-02T12:31:27.107Z,23.03
2019-05-02T12:33:57.855Z,23.13
2019-05-02T12:36:27.788Z,20.47
2019-05-02T12:38:57.743Z,16.07
2019-05-02T12:41:27.706Z,14.67
2019-05-02T12:43:57.592Z,14.80
2019-05-02T12:46:28.542Z,19.73
2019-05-02T12:48:58.601Z,16.00
2019-05-02T12:51:28.517Z,19.17
2019-05-02T12:53:58.458Z,17.00
2019-05-02T12:56:28.401Z,15.23
2019-05-02T12:58:58.259Z,15.20
2019-05-02T13:01:28.212Z,15.47
2019-05-02T13:03:59.796Z,18.13
2019-05-02T13:06:29.750Z,13.73
2019-05-02T13:08:59.699Z,16.73
2019-05-02T13:11:32.140Z,11.30
2019-05-02T13:14:03.952Z,10.93
2019-05-02T13:16:33.992Z,10.40
2019-05-02T13:19:06.167Z,12.77
2019-05-02T13:21:42.383Z,12.43
2019-05-02T13:24:16.434Z,12.93
2019-05-02T13:26:46.884Z,13.17
2019-05-02T13:29:16.964Z,13.83
2019-05-02T13:32:01.678Z,12.87
2019-05-02T13:34:33.324Z,13.40
2019-05-02T13:37:03.836Z,12.73
2019-05-02T13:39:38.201Z,14.10
2019-05-02T13:42:08.824Z,13.00
2019-05-02T13:44:42.913Z,11.80
2019-05-02T13:47:14.488Z,13.50
2019-05-02T13:49:53.622Z,14.10
2019-05-02T13:52:15.952Z,12.17
2019-05-02T13:54:46.378Z,16.00
2019-05-02T13:57:16.298Z,15.33
2019-05-02T13:59:47.339Z,18.53
2019-05-02T14:02:37.092Z,15.57
2019-05-02T14:05:09.552Z,14.63
2019-05-02T14:07:42.933Z,14.20
2019-05-02T14:10:18.805Z,14.50
2019-05-02T14:12:59.447Z,14.93
2019-05-02T14:15:32.393Z,13.50
2019-05-02T14:18:03.633Z,13.93
2019-05-02T14:20:33.762Z,14.03
2019-05-02T14:23:03.743Z,14.50
2019-05-02T14:25:33.603Z,15.23
2019-05-02T14:28:03.531Z,13.90
2019-05-02T14:30:39.377Z,14.20
2019-05-02T14:33:07.317Z,15.57
2019-05-02T14:35:37.938Z,12.57
2019-05-02T14:38:09.899Z,13.70
2019-05-02T14:40:51.975Z,14.77
2019-05-02T14:43:44.475Z,14.27
2019-05-02T14:46:12.662Z,18.60
2019-05-02T14:48:45.147Z,13.87
2019-05-02T14:51:21.989Z,15.70
2019-05-02T14:53:48.341Z,16.23
2019-05-02T14:56:23.009Z,20.53
2019-05-02T14:58:53.000Z,16.33
2019-05-02T15:01:26.151Z,19.87
2019-05-02T15:03:58.280Z,15.67
2019-05-02T15:06:27.134Z,16.77
2019-05-02T15:08:57.153Z,17.63
2019-05-02T15:11:30.953Z,17.57
2019-05-02T15:13:58.654Z,16.10
2019-05-02T15:16:39.540Z,19.60
2019-05-02T15:19:02.004Z,18.47
2019-05-02T15:21:47.027Z,20.13
2019-05-02T15:24:15.522Z,20.30
2019-05-02T15:26:45.455Z,16.57
2019-05-02T15:29:19.826Z,16.90
2019-05-02T15:31:57.868Z,18.97
2019-05-02T15:34:36.979Z,16.20
2019-05-02T15:37:04.954Z,19.23
2019-05-02T15:42:06.496Z,15.60
2019-05-02T15:44:36.546Z,19.80
2019-05-02T15:47:07.062Z,18.20
2019-05-02T15:49:50.161Z,16.10
2019-05-02T15:52:24.214Z,17.67
2019-05-02T15:54:59.811Z,17.87
2019-05-02T15:57:24.931Z,19.93
2019-05-02T15:59:55.285Z,17.20
2019-05-02T16:02:26.887Z,17.73
2019-05-02T16:05:01.376Z,17.03
2019-05-02T16:07:28.509Z,19.83
2019-05-02T16:10:01.147Z,16.47
2019-05-02T16:12:32.158Z,23.00
2019-05-02T16:15:25.820Z,19.70
2019-05-02T16:17:56.736Z,21.50
2019-05-02T16:20:40.417Z,17.40
2019-05-02T16:23:07.535Z,16.03
2019-05-02T16:25:37.479Z,19.00
2019-05-02T16:28:12.614Z,19.93
2019-05-02T16:30:47.652Z,18.33
2019-05-02T16:33:19.716Z,20.57
2019-05-02T16:35:52.911Z,21.87
2019-05-02T16:38:19.657Z,23.37
2019-05-02T16:40:49.620Z,20.13
2019-05-02T16:43:19.550Z,19.93
2019-05-02T16:45:49.488Z,22.57
2019-05-02T16:48:19.437Z,23.00
2019-05-02T16:50:49.642Z,20.80
2019-05-02T16:53:22.620Z,21.47
2019-05-02T16:55:51.243Z,19.40
2019-05-02T16:58:21.303Z,19.50
2019-05-02T17:00:52.806Z,20.30
2019-05-02T17:03:26.429Z,21.53
2019-05-02T17:05:54.688Z,21.53
2019-05-02T17:08:41.860Z,20.87
2019-05-02T17:11:27.787Z,22.80
2019-05-02T17:13:55.061Z,26.37
2019-05-02T17:16:25.025Z,22.17
2019-05-02T17:18:56.566Z,21.50
2019-05-02T17:21:26.901Z,24.67
2019-05-02T17:23:58.428Z,24.77
2019-05-02T17:26:28.336Z,26.07
2019-05-02T17:28:58.264Z,25.17
2019-05-02T17:31:29.123Z,28.73
2019-05-02T17:33:59.062Z,27.83
2019-05-02T17:36:30.626Z,25.83
2019-05-02T17:39:06.804Z,25.73
2019-05-02T17:41:37.102Z,27.03
2019-05-02T17:44:05.697Z,25.13
2019-05-02T17:46:36.677Z,27.23
2019-05-02T17:49:06.865Z,25.43
2019-05-02T17:52:05.013Z,27.40
2019-05-02T17:54:26.695Z,24.77
2019-05-02T17:56:57.397Z,25.93
2019-05-02T17:59:33.025Z,24.40
2019-05-02T18:02:01.865Z,25.33
2019-05-02T18:04:32.507Z,27.70
2019-05-02T18:07:02.588Z,24.70
2019-05-02T18:09:35.036Z,25.63
2019-05-02T18:12:07.176Z,25.20
2019-05-02T18:14:36.487Z,23.97
2019-05-02T18:17:07.444Z,22.67
2019-05-02T18:19:37.618Z,23.63
2019-05-02T18:22:21.123Z,23.03
2019-05-02T18:24:44.782Z,28.23
2019-05-02T18:27:12.923Z,23.20
2019-05-02T18:29:45.691Z,25.30
2019-05-02T18:32:17.632Z,22.60
2019-05-02T18:34:47.293Z,24.70
2019-05-02T18:37:17.254Z,25.13
2019-05-02T18:39:53.360Z,23.43
2019-05-02T18:42:21.925Z,26.47
2019-05-02T18:44:53.098Z,23.93
2019-05-02T18:47:24.812Z,24.87
2019-05-02T18:50:04.357Z,24.07
2019-05-02T18:52:36.320Z,27.93
2019-05-02T18:54:58.901Z,24.90
2019-05-02T18:57:29.634Z,25.40
2019-05-02T18:59:59.621Z,25.20
2019-05-02T19:02:32.740Z,25.57
2019-05-02T19:05:01.937Z,21.57
2019-05-02T19:07:35.383Z,23.07
2019-05-02T19:10:09.093Z,23.63
2019-05-02T19:12:39.020Z,28.57
2019-05-02T19:15:09.231Z,24.30
2019-05-02T19:17:40.515Z,21.10
2019-05-02T19:20:28.934Z,23.93
2019-05-02T19:23:00.262Z,22.73
2019-05-02T19:25:32.136Z,22.83
2019-05-02T19:28:06.619Z,22.57
2019-05-02T19:30:38.993Z,24.47
2019-05-02T19:33:09.434Z,20.30
2019-05-02T19:35:43.159Z,22.17
2019-05-02T19:38:12.280Z,19.63
2019-05-02T19:40:43.604Z,20.37
2019-05-02T19:43:14.864Z,23.47
2019-05-02T19:45:50.380Z,20.83
2019-05-02T19:48:18.652Z,23.53
2019-05-02T19:50:51.705Z,25.37
2019-05-02T19:53:22.893Z,22.23
2019-05-02T19:55:57.247Z,20.63
2019-05-02T19:58:24.667Z,19.47
2019-05-02T20:00:56.673Z,23.77
2019-05-02T20:03:26.697Z,20.43
2019-05-02T20:06:02.398Z,23.77
2019-05-02T20:08:29.440Z,22.27
2019-05-02T20:10:59.693Z,23.13
2019-05-02T20:13:32.544Z,24.07
2019-05-02T20:16:13.274Z,22.93
2019-05-02T20:18:47.144Z,19.73
2019-05-02T20:21:23.161Z,21.53
2019-05-02T20:23:47.978Z,20.67
2019-05-02T20:26:17.990Z,21.57
2019-05-02T20:28:48.410Z,24.63
2019-05-02T20:31:18.272Z,24.40
2019-05-02T20:33:49.067Z,25.17
2019-05-02T20:36:19.255Z,22.53
2019-05-02T20:38:49.554Z,24.30
2019-05-02T20:41:19.419Z,25.37
2019-05-02T20:43:51.694Z,23.87
2019-05-02T20:46:22.065Z,24.30
2019-05-02T20:48:52.543Z,24.70
2019-05-02T20:51:22.895Z,24.10
2019-05-02T20:53:53.881Z,24.47
2019-05-02T20:56:23.826Z,25.83
2019-05-02T20:58:54.801Z,23.03
2019-05-02T21:01:24.915Z,26.77
2019-05-02T21:03:54.866Z,23.53
2019-05-02T21:06:37.649Z,27.43
2019-05-02T21:09:02.048Z,26.83
2019-05-02T21:11:32.914Z,22.63
2019-05-02T21:14:03.097Z,23.60
2019-05-02T21:16:33.087Z,25.70
2019-05-02T21:19:04.188Z,26.17
2019-05-02T21:21:34.951Z,24.20
2019-05-02T21:24:05.165Z,23.43
2019-05-02T21:26:35.186Z,22.07
2019-05-02T21:29:05.186Z,23.87
2019-05-02T21:31:35.188Z,24.90
2019-05-02T21:34:07.274Z,19.60
2019-05-02T21:36:36.753Z,21.90
2019-05-02T21:39:11.761Z,18.87
2019-05-02T21:41:42.370Z,22.33
2019-05-02T21:44:13.160Z,21.97
2019-05-02T21:46:43.324Z,20.83
2019-05-02T21:49:14.872Z,20.23
2019-05-02T21:51:47.077Z,22.80
2019-05-02T21:54:24.125Z,22.57
2019-05-02T21:56:58.096Z,21.47
2019-05-02T21:59:28.040Z,21.93
2019-05-02T22:01:59.672Z,21.87
2019-05-02T22:04:31.650Z,24.63
2019-05-02T22:07:01.262Z,22.07
2019-05-02T22:09:32.495Z,21.93
2019-05-02T22:12:02.566Z,23.23
2019-05-02T22:14:32.946Z,25.53
2019-05-02T22:17:04.187Z,21.43
2019-05-02T22:19:34.188Z,22.93
2019-05-02T22:22:04.195Z,24.00
2019-05-02T22:24:34.060Z,24.30
2019-05-02T22:27:05.737Z,23.77
2019-05-02T22:29:36.198Z,23.10
2019-05-02T22:32:06.118Z,27.13
2019-05-02T22:34:36.040Z,25.67
2019-05-02T22:37:07.674Z,27.20
2019-05-02T22:39:45.195Z,25.17
2019-05-02T22:42:15.322Z,25.27
2019-05-02T22:44:45.176Z,25.83
2019-05-02T22:47:15.069Z,28.47
2019-05-02T22:49:45.008Z,26.97
2019-05-02T22:52:15.637Z,30.23
2019-05-02T22:54:45.504Z,29.57
2019-05-02T22:57:15.436Z,30.03
2019-05-02T22:59:45.313Z,27.90
2019-05-02T23:02:15.248Z,28.60
2019-05-02T23:04:45.207Z,30.57
2019-05-02T23:07:15.153Z,28.63
2019-05-02T23:09:45.095Z,29.10
2019-05-02T23:12:15.999Z,29.30
2019-05-02T23:14:45.875Z,31.93
2019-05-02T23:17:15.812Z,34.27
2019-05-02T23:19:45.773Z,30.00
2019-05-02T23:22:15.705Z,30.00
2019-05-02T23:24:53.330Z,31.43
2019-05-02T23:27:31.725Z,30.37
2019-05-02T23:30:02.859Z,32.60
2019-05-02T23:32:33.616Z,29.83
2019-05-02T23:35:03.901Z,31.80
2019-05-02T23:37:33.771Z,30.50
2019-05-02T23:40:03.700Z,31.90
2019-05-02T23:42:33.590Z,28.77
2019-05-02T23:45:05.988Z,32.13
2019-05-02T23:47:38.089Z,32.07
2019-05-02T23:50:09.277Z,29.53
2019-05-02T23:52:39.810Z,30.67
2019-05-02T23:55:09.877Z,31.33
2019-05-02T23:57:41.855Z,29.07
